Terminal Aerodrome Forecast
Issued by NWS

Home | Current Version | Previous Version | Text Only | Print | Product List | Glossary On
Versions: 1 2 3 4 5 6 7 8 9 10 11 12 13 14 15 16 17 18 19 20 21
101
FTUS41 KILN 211730
TAFLUK
TAF
KLUK 211730Z 2118/2218 21016G26KT P6SM SCT120 BKN250
     FM220000 25009KT P6SM SCT100 BKN250
     FM220200 29008KT P6SM BKN050
     FM220400 31009KT P6SM VCSH BKN050
     FM220500 32008KT P6SM BKN050
     FM221400 36006KT P6SM FEW025=

USA.gov is the U.S. government's official web portal to all federal, state and local government web resources and services.